createdAt,value
2023-04-11T00:00:02.775Z,0
2023-04-11T00:15:03.404Z,0
2023-04-11T00:30:02.657Z,0
2023-04-11T00:45:03.090Z,0
2023-04-11T01:00:02.534Z,0
2023-04-11T01:15:02.990Z,0
2023-04-11T01:30:02.450Z,0
2023-04-11T01:45:02.860Z,0
2023-04-11T02:00:02.410Z,0
2023-04-11T02:15:02.740Z,0
2023-04-11T02:30:03.397Z,0
2023-04-11T02:45:02.661Z,0
2023-04-11T03:00:03.062Z,0
2023-04-11T03:15:02.531Z,0
2023-04-11T03:30:02.946Z,0
2023-04-11T03:45:02.437Z,0
2023-04-11T04:00:02.829Z,0
2023-04-11T04:15:03.448Z,0
2023-04-11T04:30:04.187Z,0
2023-04-11T04:45:03.155Z,0
2023-04-11T05:00:02.602Z,1
2023-04-11T05:15:03.038Z,11
2023-04-11T05:30:02.490Z,15
2023-04-11T05:45:02.917Z,31
2023-04-11T06:00:02.469Z,59
2023-04-11T06:15:02.819Z,29
2023-04-11T06:30:02.412Z,76
2023-04-11T06:45:02.680Z,300
2023-04-11T07:00:03.149Z,86
2023-04-11T07:15:02.579Z,156
2023-04-11T07:30:03.002Z,186
2023-04-11T07:45:02.491Z,141
2023-04-11T08:00:02.877Z,132
2023-04-11T08:15:02.493Z,370
2023-04-11T08:30:02.992Z,186
2023-04-11T08:45:02.196Z,379
2023-04-11T09:00:02.622Z,137
2023-04-11T09:15:03.069Z,147
2023-04-11T09:30:02.532Z,135
2023-04-11T09:45:02.972Z,626
2023-04-11T10:00:02.518Z,759
2023-04-11T10:15:02.821Z,238
2023-04-11T10:30:02.264Z,265
2023-04-11T10:45:02.713Z,263
2023-04-11T11:15:02.563Z,650
2023-04-11T11:30:03.008Z,397
2023-04-11T11:45:02.534Z,288
2023-04-11T12:00:02.915Z,716
2023-04-11T12:15:02.555Z,498
2023-04-11T12:30:02.771Z,612
2023-04-11T12:45:03.257Z,497
2023-04-11T13:00:02.619Z,677
2023-04-11T13:15:02.063Z,156
2023-04-11T13:30:02.542Z,124
2023-04-11T13:45:02.957Z,171
2023-04-11T14:00:02.617Z,145
2023-04-11T14:15:02.824Z,543
2023-04-11T14:30:02.306Z,188
2023-04-11T14:45:02.707Z,322
2023-04-11T15:00:03.155Z,209
2023-04-11T15:15:02.559Z,98
2023-04-11T15:30:03.019Z,119
2023-04-11T15:45:02.567Z,84
2023-04-11T16:00:02.867Z,268
2023-04-11T16:15:02.338Z,252
2023-04-11T16:30:03.026Z,160
2023-04-11T16:45:02.218Z,150
2023-04-11T17:00:02.688Z,33
2023-04-11T17:15:03.126Z,28
2023-04-11T17:30:02.609Z,60
2023-04-11T17:45:13.908Z,21
2023-04-11T18:00:02.592Z,4
2023-04-11T18:15:02.842Z,0
2023-04-11T18:30:02.296Z,0
2023-04-11T18:45:02.840Z,0
2023-04-11T19:00:04.464Z,0
2023-04-11T19:15:02.615Z,0
2023-04-11T19:30:03.020Z,0
2023-04-11T19:45:02.637Z,0
2023-04-11T20:00:02.963Z,0
2023-04-11T20:15:02.352Z,0
2023-04-11T20:30:02.788Z,0
2023-04-11T20:45:03.227Z,0
2023-04-11T21:00:02.673Z,0
2023-04-11T21:15:03.114Z,0
2023-04-11T21:30:02.649Z,0
2023-04-11T21:45:02.965Z,0
2023-04-11T22:00:02.678Z,0
2023-04-11T22:15:02.849Z,0
2023-04-11T22:30:02.355Z,0
2023-04-11T22:45:02.774Z,0
2023-04-11T23:00:03.206Z,0
2023-04-11T23:15:02.659Z,0
2023-04-11T23:30:03.098Z,0
2023-04-11T23:45:02.664Z,0
